Time;durP1;ratioP1;P1;durP2;ratioP2;P2;SDS_P1;SDS_P2;PMS_P1;PMS_P2;Temp;Humidity;BMP_temperature;BMP_pressure;BME280_temperature;BME280_humidity;BME280_pressure;Samples;Min_cycle;Max_cycle;Signal;HPM_P1;HPM_P2
2023/08/31 00:02:06;;;;;;;2.30;0.80;;;19.40;99.90;;;;;;4993493;28;20034;-38
2023/08/31 00:04:33;;;;;;;1.77;1.10;;;19.30;99.90;;;;;;4993575;28;20023;-38
2023/08/31 00:06:58;;;;;;;1.45;0.80;;;19.30;99.90;;;;;;4993838;28;20018;-37
2023/08/31 00:09:24;;;;;;;2.15;1.10;;;19.30;99.90;;;;;;4993285;28;20072;-35
2023/08/31 00:11:51;;;;;;;1.10;0.90;;;19.30;99.90;;;;;;4993342;28;20387;-36
2023/08/31 00:14:17;;;;;;;1.58;0.93;;;19.30;99.90;;;;;;4993409;28;20038;-38
2023/08/31 00:16:45;;;;;;;2.42;0.95;;;19.30;99.90;;;;;;4993108;28;20038;-36
2023/08/31 00:19:11;;;;;;;3.30;1.20;;;19.30;99.90;;;;;;4992445;28;20101;-37
2023/08/31 00:21:37;;;;;;;2.30;0.80;;;19.30;99.90;;;;;;4993275;28;20490;-38
2023/08/31 00:24:04;;;;;;;2.03;1.05;;;19.30;99.90;;;;;;4993222;28;20034;-38
2023/08/31 00:26:30;;;;;;;2.22;1.17;;;19.30;99.90;;;;;;4993174;28;20479;-35
2023/08/31 00:28:58;;;;;;;1.60;0.85;;;19.30;99.90;;;;;;4993091;28;20105;-35
2023/08/31 00:31:23;;;;;;;1.25;0.88;;;19.30;99.90;;;;;;4975349;28;20062;-37
2023/08/31 00:33:50;;;;;;;1.23;0.80;;;19.30;99.90;;;;;;4992902;28;20069;-34
2023/08/31 00:36:16;;;;;;;1.30;0.90;;;19.30;99.90;;;;;;4993132;28;20026;-35
2023/08/31 00:38:42;;;;;;;2.10;1.08;;;19.30;99.90;;;;;;4992407;28;20022;-37
2023/08/31 00:41:07;;;;;;;1.05;0.82;;;19.30;99.90;;;;;;4992492;28;20499;-34
2023/08/31 00:43:33;;;;;;;2.15;1.00;;;19.30;99.90;;;;;;4993030;28;20034;-35
2023/08/31 00:45:59;;;;;;;1.38;0.77;;;19.30;99.90;;;;;;4992903;28;20022;-35
2023/08/31 00:48:25;;;;;;;1.92;1.10;;;19.30;99.90;;;;;;4992880;28;20500;-35
2023/08/31 00:50:51;;;;;;;2.80;1.00;;;19.30;99.90;;;;;;4992215;28;20030;-35
2023/08/31 00:53:18;;;;;;;2.15;0.93;;;19.30;99.90;;;;;;4992592;28;20464;-35
2023/08/31 00:55:47;;;;;;;3.03;1.13;;;19.30;99.90;;;;;;4993135;28;20022;-35
2023/08/31 00:58:13;;;;;;;2.50;1.00;;;19.30;99.90;;;;;;4992600;28;20084;-38
2023/08/31 01:01:06;;;;;;;0.98;0.73;;;19.20;99.90;;;;;;4992318;28;20033;-36
2023/08/31 01:03:46;;;;;;;2.13;1.10;;;19.20;99.90;;;;;;4985597;28;20380;-35
2023/08/31 01:06:31;;;;;;;2.25;0.98;;;19.30;99.90;;;;;;4992098;28;20019;-34
2023/08/31 01:09:01;;;;;;;1.00;0.80;;;19.20;99.90;;;;;;4991794;28;20122;-38
2023/08/31 01:11:41;;;;;;;1.33;0.90;;;19.20;99.90;;;;;;4991828;28;20471;-35
2023/08/31 01:14:16;;;;;;;0.93;0.77;;;19.20;99.90;;;;;;4991957;28;20134;-38
2023/08/31 01:16:43;;;;;;;3.45;0.98;;;19.20;99.90;;;;;;4991913;28;20027;-37
2023/08/31 01:19:41;;;;;;;0.93;0.75;;;19.20;99.90;;;;;;4991506;28;20073;-35
2023/08/31 01:22:11;;;;;;;1.42;1.02;;;19.20;99.90;;;;;;4983748;28;20070;-35
2023/08/31 01:24:38;;;;;;;1.10;0.90;;;19.20;99.90;;;;;;4992014;28;20479;-34
2023/08/31 01:27:04;;;;;;;1.83;1.15;;;19.20;99.90;;;;;;4991939;28;20471;-38
2023/08/31 01:29:30;;;;;;;1.77;0.98;;;19.20;99.90;;;;;;4991833;28;20074;-35
2023/08/31 01:31:56;;;;;;;1.80;1.13;;;19.20;99.90;;;;;;4991733;28;20640;-37
2023/08/31 01:34:22;;;;;;;1.77;1.05;;;19.20;99.90;;;;;;4991799;28;20057;-36
2023/08/31 01:36:53;;;;;;;0.80;0.80;;;19.20;99.90;;;;;;4991733;28;20084;-35
2023/08/31 01:39:33;;;;;;;2.40;0.93;;;19.20;99.90;;;;;;4991622;28;20053;-38
2023/08/31 01:42:04;;;;;;;1.88;1.20;;;19.20;99.90;;;;;;4991499;28;20065;-36
2023/08/31 01:44:32;;;;;;;2.63;0.90;;;19.20;99.90;;;;;;4992105;28;20084;-35
2023/08/31 01:47:06;;;;;;;2.33;1.00;;;19.20;99.90;;;;;;4991674;28;20022;-35
2023/08/31 01:49:37;;;;;;;1.38;0.80;;;19.10;99.90;;;;;;4973992;28;20391;-37
2023/08/31 01:52:02;;;;;;;2.03;0.80;;;19.20;99.90;;;;;;4992652;28;20103;-35
2023/08/31 01:54:28;;;;;;;2.25;0.90;;;19.10;99.90;;;;;;4995323;28;20545;-35
2023/08/31 01:56:54;;;;;;;2.92;1.00;;;19.10;99.90;;;;;;4995161;28;20038;-35
2023/08/31 01:59:20;;;;;;;2.67;0.90;;;19.10;99.90;;;;;;4995109;28;20026;-36
2023/08/31 02:01:45;;;;;;;1.02;0.85;;;19.10;99.90;;;;;;4995199;28;20028;-38
2023/08/31 02:04:11;;;;;;;1.58;0.85;;;19.10;99.90;;;;;;4995304;28;20022;-35
2023/08/31 02:06:36;;;;;;;1.65;0.80;;;19.10;99.90;;;;;;4995089;28;20022;-36
2023/08/31 02:09:02;;;;;;;1.13;0.80;;;19.10;99.90;;;;;;4994787;28;20030;-35
2023/08/31 02:11:28;;;;;;;1.50;0.95;;;19.10;99.90;;;;;;4995002;28;20547;-37
2023/08/31 02:13:53;;;;;;;2.55;1.20;;;19.10;99.90;;;;;;4995069;28;20036;-37
2023/08/31 02:16:19;;;;;;;1.45;0.85;;;19.10;99.90;;;;;;4994952;28;20101;-36
2023/08/31 02:18:44;;;;;;;1.70;1.13;;;19.10;99.90;;;;;;4977679;28;20360;-35
2023/08/31 02:21:10;;;;;;;2.17;1.00;;;19.10;99.90;;;;;;4994874;28;20030;-36
2023/08/31 02:23:36;;;;;;;1.48;0.80;;;19.10;99.90;;;;;;4994844;28;20029;-35
2023/08/31 02:26:01;;;;;;;2.38;0.80;;;19.10;99.90;;;;;;4994978;28;20504;-35
2023/08/31 02:28:27;;;;;;;1.10;0.85;;;19.10;99.90;;;;;;4977263;28;20030;-35
2023/08/31 02:31:01;;;;;;;1.42;1.00;;;19.10;99.90;;;;;;4994512;28;20178;-36
2023/08/31 02:33:27;;;;;;;2.72;1.08;;;19.10;99.90;;;;;;4994684;28;20439;-34
2023/08/31 02:35:54;;;;;;;1.08;0.80;;;19.10;99.90;;;;;;4994561;28;20026;-38
2023/08/31 02:38:20;;;;;;;1.60;0.95;;;19.10;99.90;;;;;;4994547;28;20449;-36
2023/08/31 02:40:49;;;;;;;1.40;0.90;;;19.10;99.90;;;;;;4994224;28;20069;-35
2023/08/31 02:43:15;;;;;;;1.45;0.77;;;19.10;99.90;;;;;;4994465;28;20571;-35
2023/08/31 02:45:41;;;;;;;1.63;0.90;;;19.10;99.90;;;;;;4994500;28;20027;-37
2023/08/31 02:48:10;;;;;;;1.10;0.70;;;19.10;99.90;;;;;;4994488;28;20030;-37
2023/08/31 02:50:36;;;;;;;1.30;0.90;;;19.10;99.90;;;;;;4994004;28;20447;-37
2023/08/31 02:53:02;;;;;;;1.50;0.90;;;19.10;99.90;;;;;;4994224;28;20030;-37
2023/08/31 02:55:28;;;;;;;1.80;0.90;;;19.10;99.90;;;;;;4994308;28;20033;-37
2023/08/31 02:57:54;;;;;;;2.30;0.85;;;19.10;99.90;;;;;;4994217;28;20388;-37
2023/08/31 03:00:22;;;;;;;1.23;0.80;;;19.10;99.90;;;;;;4993949;28;20045;-37
2023/08/31 03:02:49;;;;;;;0.68;0.50;;;19.10;99.90;;;;;;4994098;28;20106;-37
2023/08/31 03:05:16;;;;;;;3.40;1.10;;;19.10;99.90;;;;;;4994036;28;20023;-37
2023/08/31 03:07:41;;;;;;;1.75;0.88;;;19.00;99.90;;;;;;4994065;28;20396;-37
2023/08/31 03:10:08;;;;;;;1.67;0.77;;;19.00;99.90;;;;;;4993948;28;20018;-38
2023/08/31 03:12:33;;;;;;;1.33;0.90;;;19.00;99.90;;;;;;4993930;28;20026;-37
2023/08/31 03:14:59;;;;;;;0.82;0.80;;;19.00;99.90;;;;;;4994080;28;20034;-37
2023/08/31 03:17:24;;;;;;;0.70;0.55;;;19.00;99.90;;;;;;4993874;28;20030;-37
2023/08/31 03:19:50;;;;;;;3.65;0.90;;;19.00;99.90;;;;;;4993593;28;20487;-39
2023/08/31 03:22:16;;;;;;;1.33;0.73;;;19.00;99.90;;;;;;4993751;28;20022;-40
2023/08/31 03:24:42;;;;;;;2.28;0.90;;;19.00;99.90;;;;;;4993849;28;20019;-39
2023/08/31 03:27:07;;;;;;;1.60;0.77;;;19.00;99.90;;;;;;4993838;28;20053;-39
2023/08/31 03:29:34;;;;;;;1.05;0.80;;;19.00;99.90;;;;;;4993956;28;20080;-39
2023/08/31 03:32:01;;;;;;;2.78;0.90;;;19.00;99.90;;;;;;4993616;28;20022;-40
2023/08/31 03:34:30;;;;;;;3.05;0.88;;;19.00;99.90;;;;;;4993610;28;20416;-41
2023/08/31 03:36:56;;;;;;;1.13;0.70;;;19.00;99.90;;;;;;4993576;28;20054;-41
2023/08/31 03:39:22;;;;;;;1.73;0.70;;;19.00;99.90;;;;;;4993555;28;20058;-39
2023/08/31 03:41:47;;;;;;;1.95;0.80;;;19.00;99.90;;;;;;5015279;23;20519;-38
2023/08/31 03:44:13;;;;;;;1.00;0.80;;;19.00;99.90;;;;;;4993189;28;20041;-35
2023/08/31 03:46:39;;;;;;;1.08;0.70;;;19.00;99.90;;;;;;4993245;28;20053;-40
2023/08/31 03:49:04;;;;;;;1.15;0.73;;;19.00;99.90;;;;;;4992902;28;20037;-38
2023/08/31 03:51:30;;;;;;;1.65;0.90;;;19.00;99.90;;;;;;4993258;28;20023;-40
2023/08/31 03:53:56;;;;;;;1.05;0.80;;;19.00;99.90;;;;;;4993200;28;20032;-39
2023/08/31 03:56:22;;;;;;;1.08;0.82;;;19.00;99.90;;;;;;4993091;28;20027;-39
2023/08/31 03:58:48;;;;;;;1.17;0.80;;;19.00;99.90;;;;;;4992900;28;20053;-40
2023/08/31 04:01:14;;;;;;;1.45;0.70;;;19.00;99.90;;;;;;4992870;28;20407;-37
2023/08/31 04:03:41;;;;;;;1.85;0.80;;;18.90;99.90;;;;;;4992776;28;20088;-37
2023/08/31 04:06:07;;;;;;;0.85;0.75;;;19.00;99.90;;;;;;4992967;28;20022;-40
2023/08/31 04:08:33;;;;;;;1.50;0.70;;;19.00;99.90;;;;;;4992848;28;20030;-36
2023/08/31 04:10:58;;;;;;;1.50;0.88;;;19.00;99.90;;;;;;4992540;28;20027;-38
2023/08/31 04:13:24;;;;;;;2.25;0.95;;;19.00;99.90;;;;;;4992723;28;20069;-40
2023/08/31 04:15:50;;;;;;;2.88;0.80;;;19.00;99.90;;;;;;4992280;28;20479;-36
2023/08/31 04:18:15;;;;;;;0.98;0.60;;;18.90;99.90;;;;;;4974986;28;20037;-40
2023/08/31 04:20:52;;;;;;;1.67;0.65;;;18.90;99.90;;;;;;4992343;28;20058;-38
2023/08/31 04:23:18;;;;;;;1.17;0.80;;;18.90;99.90;;;;;;4992592;28;20097;-38
2023/08/31 04:25:44;;;;;;;1.90;0.80;;;18.90;99.90;;;;;;4992953;28;20116;-37
2023/08/31 04:28:10;;;;;;;1.08;0.70;;;18.90;99.90;;;;;;4992550;28;20026;-37
2023/08/31 04:30:35;;;;;;;1.90;1.00;;;18.90;99.90;;;;;;4992218;28;20522;-38
2023/08/31 04:33:01;;;;;;;1.20;0.90;;;18.90;99.90;;;;;;4992361;28;20375;-40
2023/08/31 04:35:27;;;;;;;1.50;0.95;;;19.00;99.90;;;;;;4992451;28;20049;-35
2023/08/31 04:37:52;;;;;;;1.08;0.80;;;18.90;99.90;;;;;;4992241;28;20026;-37
2023/08/31 04:40:18;;;;;;;0.90;0.68;;;18.90;99.90;;;;;;4992143;28;20030;-38
2023/08/31 04:42:44;;;;;;;1.35;0.68;;;18.90;99.90;;;;;;4992164;28;20034;-40
2023/08/31 04:45:12;;;;;;;1.73;0.82;;;18.90;99.90;;;;;;4992254;28;20033;-37
2023/08/31 04:47:37;;;;;;;0.77;0.60;;;18.90;99.90;;;;;;4992140;28;20026;-37
2023/08/31 04:50:06;;;;;;;1.25;0.60;;;18.90;99.90;;;;;;4992022;28;20093;-38
2023/08/31 04:52:32;;;;;;;1.30;0.90;;;18.90;99.90;;;;;;4992116;28;20029;-40
2023/08/31 04:54:58;;;;;;;0.98;0.80;;;18.90;99.90;;;;;;4992071;28;20097;-40
2023/08/31 04:57:24;;;;;;;1.10;0.80;;;18.90;99.90;;;;;;4992066;28;20483;-35
2023/08/31 04:59:49;;;;;;;2.13;0.90;;;18.90;99.90;;;;;;4991794;28;20022;-40
2023/08/31 05:02:15;;;;;;;1.27;0.82;;;18.90;99.90;;;;;;4991975;28;20019;-40
2023/08/31 05:04:41;;;;;;;1.15;0.75;;;18.90;99.90;;;;;;4992056;28;20391;-38
2023/08/31 05:07:07;;;;;;;3.03;0.85;;;18.90;99.90;;;;;;4992077;28;20034;-40
2023/08/31 05:09:34;;;;;;;0.93;0.70;;;18.90;99.90;;;;;;4991832;28;20029;-40
2023/08/31 05:12:02;;;;;;;1.48;1.00;;;18.90;99.90;;;;;;4991940;28;20049;-40
2023/08/31 05:14:28;;;;;;;1.50;0.70;;;18.90;99.90;;;;;;4992030;28;20033;-38
2023/08/31 05:16:54;;;;;;;1.83;0.63;;;18.90;99.90;;;;;;4974316;28;20034;-41
2023/08/31 05:19:19;;;;;;;1.02;0.70;;;18.90;99.90;;;;;;4991751;28;20023;-38
2023/08/31 05:21:45;;;;;;;0.85;0.70;;;18.90;99.90;;;;;;4974348;28;20018;-38
2023/08/31 05:24:11;;;;;;;0.95;0.80;;;18.80;99.90;;;;;;4991885;28;20027;-38
2023/08/31 05:26:36;;;;;;;1.13;0.63;;;18.80;99.90;;;;;;4992268;28;20045;-40
2023/08/31 05:29:03;;;;;;;1.13;0.75;;;18.80;99.90;;;;;;4995518;28;20026;-37
2023/08/31 05:31:29;;;;;;;1.83;1.00;;;18.80;99.90;;;;;;4995636;28;20031;-38
2023/08/31 05:33:55;;;;;;;1.10;0.77;;;18.80;99.90;;;;;;4995778;28;20027;-37
2023/08/31 05:36:21;;;;;;;3.80;0.77;;;18.90;99.90;;;;;;4978073;28;20100;-38
2023/08/31 05:38:46;;;;;;;2.10;0.95;;;18.90;99.90;;;;;;4995540;28;20023;-38
2023/08/31 05:41:12;;;;;;;0.88;0.70;;;18.80;99.90;;;;;;4995419;28;20438;-43
2023/08/31 05:43:40;;;;;;;1.08;0.80;;;18.80;99.90;;;;;;4995541;28;20022;-37
2023/08/31 05:46:07;;;;;;;1.73;0.90;;;18.80;99.90;;;;;;4995557;28;20732;-37
2023/08/31 05:48:34;;;;;;;1.58;0.90;;;18.80;99.90;;;;;;4995631;28;20403;-38
2023/08/31 05:51:00;;;;;;;2.90;0.93;;;18.80;99.90;;;;;;4995183;28;20050;-38
2023/08/31 05:53:25;;;;;;;2.08;0.75;;;18.80;99.90;;;;;;4995518;28;20462;-40
2023/08/31 05:55:51;;;;;;;2.53;0.90;;;18.80;99.90;;;;;;4995754;28;20055;-39
2023/08/31 05:58:16;;;;;;;1.30;0.90;;;18.80;99.90;;;;;;4995134;28;20027;-37
2023/08/31 06:00:42;;;;;;;0.98;0.82;;;18.80;99.90;;;;;;4994952;28;20061;-35
2023/08/31 06:03:08;;;;;;;1.50;1.00;;;18.80;99.90;;;;;;4995287;28;20564;-38
2023/08/31 06:05:35;;;;;;;2.80;0.90;;;18.80;99.90;;;;;;4995179;28;20018;-38
2023/08/31 06:08:00;;;;;;;1.58;0.95;;;18.80;99.90;;;;;;4995103;28;20077;-36
2023/08/31 06:10:26;;;;;;;1.17;0.75;;;18.80;99.90;;;;;;4994838;28;20032;-38
2023/08/31 06:12:51;;;;;;;2.65;0.77;;;18.80;99.90;;;;;;4994868;28;20038;-40
2023/08/31 06:15:17;;;;;;;2.17;0.80;;;18.80;99.90;;;;;;4995037;28;20030;-38
2023/08/31 06:17:43;;;;;;;1.35;0.80;;;18.80;99.90;;;;;;4995628;28;20493;-38
2023/08/31 06:20:10;;;;;;;1.90;0.80;;;18.80;99.90;;;;;;4995371;28;20023;-36
2023/08/31 06:22:36;;;;;;;2.03;1.00;;;18.80;99.90;;;;;;4995681;28;20120;-40
2023/08/31 06:25:04;;;;;;;1.20;0.90;;;18.80;99.90;;;;;;4994769;28;20065;-40
2023/08/31 06:27:29;;;;;;;1.35;0.88;;;18.80;99.90;;;;;;4994712;28;20487;-38
2023/08/31 06:29:56;;;;;;;1.38;0.88;;;18.80;99.90;;;;;;4994465;28;20030;-38
2023/08/31 06:32:21;;;;;;;1.50;0.70;;;18.80;99.90;;;;;;4994627;28;20038;-41
2023/08/31 06:34:47;;;;;;;1.58;1.10;;;18.80;99.90;;;;;;4994663;28;20037;-38
2023/08/31 06:37:13;;;;;;;0.88;0.63;;;18.80;99.90;;;;;;4994221;28;20032;-40
2023/08/31 06:39:38;;;;;;;1.42;0.90;;;18.80;99.90;;;;;;4994083;28;20022;-37
2023/08/31 06:42:04;;;;;;;1.35;0.90;;;18.80;99.90;;;;;;4994272;28;20045;-35
2023/08/31 06:44:31;;;;;;;1.00;0.65;;;18.80;99.90;;;;;;4994489;28;20069;-40
2023/08/31 06:46:56;;;;;;;1.13;0.65;;;18.80;99.90;;;;;;4994394;28;20034;-40
2023/08/31 06:49:23;;;;;;;1.27;0.90;;;18.90;99.90;;;;;;4994158;28;20034;-37
2023/08/31 06:51:49;;;;;;;1.88;0.90;;;18.90;99.90;;;;;;4994107;28;20022;-40
2023/08/31 06:54:14;;;;;;;1.33;0.73;;;18.90;99.90;;;;;;4994299;28;20034;-38
2023/08/31 06:56:40;;;;;;;1.73;1.02;;;18.90;99.90;;;;;;4994328;28;20053;-40
2023/08/31 06:59:05;;;;;;;1.80;1.00;;;18.90;99.90;;;;;;4994194;28;20022;-39
2023/08/31 07:01:32;;;;;;;1.80;0.70;;;18.90;99.90;;;;;;4994085;28;20026;-37
2023/08/31 07:03:58;;;;;;;1.80;0.80;;;18.90;99.90;;;;;;4994046;28;20023;-38
2023/08/31 07:06:24;;;;;;;1.60;0.70;;;18.90;99.90;;;;;;4993970;28;20428;-38
2023/08/31 07:08:50;;;;;;;1.45;0.80;;;18.90;99.90;;;;;;4993863;28;20034;-39
2023/08/31 07:11:16;;;;;;;1.42;0.70;;;18.90;99.90;;;;;;4994187;28;20025;-41
2023/08/31 07:13:41;;;;;;;1.92;0.90;;;18.90;99.90;;;;;;4993935;28;20072;-40
2023/08/31 07:16:07;;;;;;;1.92;0.93;;;18.90;99.90;;;;;;4993831;28;20511;-40
2023/08/31 07:18:33;;;;;;;1.08;0.70;;;18.90;99.90;;;;;;4993779;28;20026;-38
2023/08/31 07:20:58;;;;;;;4.32;1.58;;;18.90;99.90;;;;;;4993432;28;20068;-37
2023/08/31 07:23:24;;;;;;;6.75;1.45;;;18.80;99.90;;;;;;4993939;28;20018;-40
2023/08/31 07:25:50;;;;;;;5.50;1.90;;;18.70;99.90;;;;;;4993708;28;20068;-42
2023/08/31 07:28:15;;;;;;;3.95;1.48;;;18.60;99.90;;;;;;4993658;28;20026;-38
2023/08/31 07:30:41;;;;;;;5.03;1.48;;;18.60;99.90;;;;;;4993297;28;20043;-38
2023/08/31 07:33:07;;;;;;;6.15;1.50;;;18.60;99.90;;;;;;4993613;28;20085;-36
2023/08/31 07:35:33;;;;;;;4.07;1.38;;;18.70;99.90;;;;;;4993631;28;20591;-40
2023/08/31 07:37:59;;;;;;;4.47;1.52;;;18.70;99.90;;;;;;4993405;28;20023;-38
2023/08/31 07:40:25;;;;;;;5.35;1.50;;;18.80;99.90;;;;;;4993240;28;20121;-40
2023/08/31 07:42:51;;;;;;;2.80;1.30;;;18.80;99.90;;;;;;4993223;28;20030;-35
2023/08/31 07:45:17;;;;;;;3.80;1.52;;;18.80;99.90;;;;;;4993697;28;20106;-38
2023/08/31 07:47:43;;;;;;;5.07;1.50;;;18.90;99.90;;;;;;4993270;28;20105;-41
2023/08/31 07:50:09;;;;;;;4.00;1.52;;;18.90;99.90;;;;;;4992113;28;20041;-39
2023/08/31 07:52:34;;;;;;;3.63;1.40;;;18.90;99.90;;;;;;4993368;28;20037;-39
2023/08/31 07:55:00;;;;;;;3.28;1.40;;;18.90;99.90;;;;;;4993137;28;20419;-40
2023/08/31 07:57:26;;;;;;;3.22;1.33;;;18.90;99.90;;;;;;4993155;28;20050;-40
2023/08/31 07:59:52;;;;;;;5.50;1.55;;;19.00;99.90;;;;;;4992838;28;20025;-39
2023/08/31 08:02:17;;;;;;;5.22;1.60;;;19.00;99.90;;;;;;4992953;28;20023;-35
2023/08/31 08:04:45;;;;;;;3.63;1.40;;;18.90;99.90;;;;;;4993326;28;20026;-39
2023/08/31 08:07:11;;;;;;;4.45;1.45;;;18.80;99.90;;;;;;4992881;28;20042;-38
2023/08/31 08:09:36;;;;;;;6.20;2.00;;;18.70;99.90;;;;;;4992719;28;20034;-40
2023/08/31 08:12:02;;;;;;;3.25;1.48;;;18.70;99.90;;;;;;4992921;28;20026;-39
2023/08/31 08:14:28;;;;;;;4.50;1.50;;;18.80;99.90;;;;;;4992783;28;20030;-38
2023/08/31 08:16:54;;;;;;;3.00;1.63;;;18.80;99.90;;;;;;4992664;28;20415;-35
2023/08/31 08:19:23;;;;;;;4.72;1.50;;;18.80;99.90;;;;;;4992392;28;20038;-36
2023/08/31 08:21:50;;;;;;;4.07;1.58;;;18.80;99.90;;;;;;4992613;28;20480;-38
2023/08/31 08:24:16;;;;;;;3.45;1.63;;;18.90;99.90;;;;;;4992807;28;20070;-38
2023/08/31 08:26:41;;;;;;;5.20;1.55;;;18.90;99.90;;;;;;4992677;28;20537;-38
2023/08/31 08:29:07;;;;;;;3.65;1.77;;;19.00;99.90;;;;;;4992202;28;20030;-40
2023/08/31 08:31:33;;;;;;;2.75;1.30;;;19.00;99.90;;;;;;4992434;28;20138;-37
2023/08/31 08:33:58;;;;;;;4.25;1.20;;;19.00;99.90;;;;;;4992389;28;20036;-38
2023/08/31 08:36:24;;;;;;;3.33;1.50;;;19.00;99.90;;;;;;4992468;28;20395;-36
2023/08/31 08:38:50;;;;;;;4.13;1.30;;;19.00;99.90;;;;;;4992230;28;20058;-40
2023/08/31 08:41:20;;;;;;;2.42;1.10;;;19.00;99.90;;;;;;4992104;28;20038;-38
2023/08/31 08:43:48;;;;;;;2.63;1.38;;;19.00;99.90;;;;;;4992259;28;20019;-36
2023/08/31 08:46:14;;;;;;;3.53;1.40;;;19.10;99.90;;;;;;4992318;28;20468;-35
2023/08/31 08:48:40;;;;;;;3.25;1.92;;;19.10;99.90;;;;;;4992119;28;20108;-35
2023/08/31 08:51:07;;;;;;;3.03;1.45;;;19.10;99.90;;;;;;4991989;28;20484;-38
2023/08/31 08:53:34;;;;;;;4.75;1.55;;;19.10;99.90;;;;;;4992303;28;20088;-39
2023/08/31 08:55:59;;;;;;;4.13;1.63;;;19.10;99.90;;;;;;4974609;28;20392;-37
2023/08/31 08:58:25;;;;;;;3.42;1.35;;;19.10;99.90;;;;;;4991966;28;20033;-40
2023/08/31 09:00:54;;;;;;;3.50;1.50;;;19.10;99.90;;;;;;4991676;28;20053;-39
2023/08/31 09:03:19;;;;;;;3.53;1.50;;;19.10;99.90;;;;;;4992019;28;20023;-42
2023/08/31 09:05:45;;;;;;;3.05;1.23;;;19.20;99.90;;;;;;4992070;28;20422;-38
2023/08/31 09:08:15;;;;;;;2.97;1.50;;;19.20;99.90;;;;;;4991962;28;20030;-39
2023/08/31 09:10:43;;;;;;;3.55;1.45;;;19.20;99.90;;;;;;4974168;28;20030;-40
2023/08/31 09:13:13;;;;;;;3.42;1.40;;;19.20;99.90;;;;;;4991946;28;20034;-39
2023/08/31 09:15:43;;;;;;;2.67;1.40;;;19.20;99.90;;;;;;4991884;28;20034;-39
2023/08/31 09:18:23;;;;;;;3.13;1.60;;;19.20;99.90;;;;;;4992120;28;20030;-40
2023/08/31 09:20:49;;;;;;;2.45;1.25;;;19.20;99.90;;;;;;4991702;28;20052;-39
2023/08/31 09:23:16;;;;;;;3.88;1.58;;;19.20;99.90;;;;;;4992099;28;20029;-37
2023/08/31 09:25:48;;;;;;;2.90;1.40;;;19.20;99.90;;;;;;4991886;28;20026;-38
2023/08/31 09:28:15;;;;;;;2.60;1.23;;;19.30;99.90;;;;;;4991704;28;20259;-39
2023/08/31 09:30:41;;;;;;;5.03;1.60;;;19.30;99.90;;;;;;4991791;28;20022;-36
2023/08/31 09:33:09;;;;;;;2.33;1.25;;;19.30;99.90;;;;;;4992386;28;20387;-35
2023/08/31 09:35:40;;;;;;;3.10;1.60;;;19.30;99.90;;;;;;4991996;28;20120;-37
2023/08/31 09:38:09;;;;;;;3.85;1.60;;;19.30;99.90;;;;;;4991954;28;20026;-39
2023/08/31 09:40:36;;;;;;;3.58;1.50;;;19.30;99.90;;;;;;4991673;28;20026;-37
2023/08/31 09:43:02;;;;;;;2.15;1.02;;;19.30;99.90;;;;;;5030946;23;20069;-35
2023/08/31 09:45:33;;;;;;;2.97;1.45;;;19.30;99.90;;;;;;4991497;28;20435;-35
2023/08/31 09:48:00;;;;;;;2.55;1.20;;;19.30;99.90;;;;;;4991874;28;20110;-36
2023/08/31 09:50:30;;;;;;;2.13;1.27;;;19.40;99.90;;;;;;4991605;28;20065;-35
2023/08/31 09:52:58;;;;;;;3.58;1.30;;;19.30;99.90;;;;;;4991812;28;20114;-36
2023/08/31 09:55:28;;;;;;;2.22;1.30;;;19.40;99.90;;;;;;4991611;28;20030;-38
2023/08/31 09:57:57;;;;;;;2.45;1.30;;;19.40;99.90;;;;;;4991417;28;20052;-36
2023/08/31 10:00:23;;;;;;;2.30;1.50;;;19.40;99.90;;;;;;4991433;28;20018;-35
2023/08/31 10:02:49;;;;;;;3.60;1.52;;;19.40;99.90;;;;;;4991617;28;20035;-36
2023/08/31 10:05:15;;;;;;;3.30;1.40;;;19.40;99.90;;;;;;4991627;28;20033;-38
2023/08/31 10:07:43;;;;;;;2.42;1.27;;;19.30;99.90;;;;;;4991844;28;20458;-37
2023/08/31 10:10:09;;;;;;;4.32;1.35;;;19.40;99.90;;;;;;4991483;28;20110;-36
2023/08/31 10:12:36;;;;;;;3.25;1.38;;;19.40;99.90;;;;;;4991820;28;20117;-35
2023/08/31 10:15:02;;;;;;;2.80;1.20;;;19.40;99.90;;;;;;4995096;28;20511;-36
2023/08/31 10:17:27;;;;;;;2.90;1.48;;;19.40;99.90;;;;;;4995011;28;20046;-35
2023/08/31 10:19:56;;;;;;;3.63;1.38;;;19.30;99.90;;;;;;4995107;28;20068;-35
2023/08/31 10:22:21;;;;;;;1.65;1.13;;;19.40;99.90;;;;;;4995564;28;20033;-35
2023/08/31 10:24:58;;;;;;;2.08;1.33;;;19.40;99.90;;;;;;4994753;28;20026;-36
2023/08/31 10:27:24;;;;;;;3.53;1.50;;;19.40;99.90;;;;;;4994900;28;20554;-35
2023/08/31 10:29:50;;;;;;;2.15;1.20;;;19.40;99.90;;;;;;4994644;28;20034;-35
2023/08/31 10:32:19;;;;;;;3.30;1.42;;;19.40;99.90;;;;;;4995123;28;20041;-35
2023/08/31 10:35:04;;;;;;;3.45;1.50;;;19.40;99.90;;;;;;4994850;28;20030;-36
2023/08/31 10:37:30;;;;;;;2.65;1.30;;;19.40;99.90;;;;;;4994609;28;20030;-35
2023/08/31 10:40:11;;;;;;;2.80;1.35;;;19.40;99.90;;;;;;4994394;28;20440;-35
2023/08/31 10:43:07;;;;;;;2.58;1.30;;;19.40;99.90;;;;;;4994446;28;20290;-35
2023/08/31 10:45:43;;;;;;;1.85;1.20;;;19.40;99.90;;;;;;4994444;28;20033;-37
2023/08/31 10:48:09;;;;;;;3.35;1.10;;;19.40;99.90;;;;;;4994480;28;20031;-36
2023/08/31 10:50:41;;;;;;;1.98;1.20;;;19.50;99.90;;;;;;4976877;28;20040;-38
2023/08/31 10:53:09;;;;;;;2.95;1.45;;;19.50;99.90;;;;;;4977022;28;20038;-38
2023/08/31 10:55:34;;;;;;;3.80;1.52;;;19.50;99.90;;;;;;4994648;28;20084;-36
2023/08/31 10:58:09;;;;;;;2.60;1.30;;;19.50;99.90;;;;;;4976829;28;20026;-35
2023/08/31 11:00:52;;;;;;;2.75;1.30;;;19.50;99.90;;;;;;4994092;28;20054;-35
2023/08/31 11:03:18;;;;;;;4.30;1.52;;;19.50;99.90;;;;;;4994284;28;20030;-37
2023/08/31 11:05:53;;;;;;;2.45;1.40;;;19.60;99.90;;;;;;4994406;28;20084;-36
2023/08/31 11:08:26;;;;;;;2.90;1.42;;;19.60;99.90;;;;;;4994192;28;20035;-37
2023/08/31 11:10:52;;;;;;;3.10;1.48;;;19.60;99.90;;;;;;4993812;28;20033;-35
2023/08/31 11:13:22;;;;;;;3.03;1.27;;;19.50;99.90;;;;;;4993974;28;20507;-35
2023/08/31 11:15:48;;;;;;;2.70;1.40;;;19.60;99.90;;;;;;4994062;28;20054;-35
2023/08/31 11:18:17;;;;;;;2.65;1.17;;;19.60;99.90;;;;;;4994135;28;20029;-35
2023/08/31 11:20:43;;;;;;;2.70;1.25;;;19.60;99.90;;;;;;4993714;28;20046;-36
2023/08/31 11:23:10;;;;;;;2.70;1.23;;;19.60;99.90;;;;;;4993824;28;20045;-35
2023/08/31 11:25:36;;;;;;;3.45;1.30;;;19.60;99.90;;;;;;4992755;28;20058;-35
2023/08/31 11:28:09;;;;;;;3.25;1.50;;;19.60;99.90;;;;;;4993914;28;20065;-35
2023/08/31 11:30:36;;;;;;;2.53;1.42;;;19.60;99.90;;;;;;4993774;28;20040;-39
2023/08/31 11:33:07;;;;;;;2.38;1.10;;;19.60;99.90;;;;;;4993668;28;20030;-35
2023/08/31 11:35:38;;;;;;;3.53;1.50;;;19.60;99.90;;;;;;4993656;28;20022;-37
2023/08/31 11:38:04;;;;;;;4.60;1.20;;;19.60;99.90;;;;;;4993381;28;20033;-41
2023/08/31 11:40:30;;;;;;;3.35;1.52;;;19.60;99.90;;;;;;4993354;28;20022;-35
2023/08/31 11:42:57;;;;;;;2.10;1.30;;;19.60;99.90;;;;;;4993473;28;20042;-37
2023/08/31 11:45:24;;;;;;;2.47;1.27;;;19.60;99.90;;;;;;4993529;28;20027;-35
2023/08/31 11:47:50;;;;;;;3.03;1.42;;;19.60;99.90;;;;;;4993322;28;20106;-36
2023/08/31 11:50:16;;;;;;;2.05;1.23;;;19.60;99.90;;;;;;4993079;28;20132;-36
2023/08/31 11:52:43;;;;;;;2.03;1.35;;;19.60;99.90;;;;;;4993332;28;20061;-36
2023/08/31 11:55:13;;;;;;;3.97;1.30;;;19.60;99.90;;;;;;4993415;28;20085;-35
2023/08/31 11:57:39;;;;;;;3.63;1.30;;;19.60;99.90;;;;;;4993262;28;20535;-36
2023/08/31 12:00:05;;;;;;;2.20;1.27;;;19.60;99.90;;;;;;4993469;28;20106;-36
2023/08/31 12:02:37;;;;;;;3.90;1.27;;;19.60;99.90;;;;;;4993097;28;20022;-35
2023/08/31 12:05:05;;;;;;;3.10;1.30;;;19.70;99.90;;;;;;4993229;28;20030;-34
2023/08/31 12:07:31;;;;;;;5.55;1.70;;;19.70;99.90;;;;;;4993072;28;20034;-35
2023/08/31 12:10:03;;;;;;;2.90;1.20;;;19.70;99.90;;;;;;4992834;28;20045;-38
2023/08/31 12:12:32;;;;;;;2.55;1.40;;;19.70;99.90;;;;;;4993151;28;20026;-37
2023/08/31 12:15:03;;;;;;;2.40;1.23;;;19.70;99.90;;;;;;4992913;28;20031;-35
2023/08/31 12:17:30;;;;;;;3.05;1.30;;;19.70;99.90;;;;;;4992713;28;20027;-37
2023/08/31 12:20:04;;;;;;;10.23;1.60;;;19.70;99.90;;;;;;4992761;28;20357;-36
2023/08/31 12:22:30;;;;;;;6.53;1.77;;;19.70;99.90;;;;;;4992583;28;20026;-36
2023/08/31 12:24:56;;;;;;;6.10;1.70;;;19.70;99.90;;;;;;4992640;28;20033;-35
2023/08/31 12:27:21;;;;;;;4.55;1.50;;;19.60;99.90;;;;;;4992766;28;20045;-35
2023/08/31 12:29:47;;;;;;;6.32;1.95;;;19.70;99.90;;;;;;4992555;28;20034;-35
2023/08/31 12:32:12;;;;;;;3.83;1.42;;;19.70;99.90;;;;;;4992812;28;20395;-35
2023/08/31 12:34:38;;;;;;;5.78;1.70;;;19.70;99.90;;;;;;4993052;28;20042;-37
2023/08/31 12:37:04;;;;;;;4.35;1.60;;;19.70;99.90;;;;;;4992094;28;20023;-36
2023/08/31 12:39:30;;;;;;;3.50;1.60;;;19.70;99.90;;;;;;4992394;28;20510;-36
2023/08/31 12:41:56;;;;;;;5.30;1.60;;;19.70;99.90;;;;;;4992154;28;20041;-36
2023/08/31 12:44:22;;;;;;;4.20;1.65;;;19.70;99.90;;;;;;4992237;28;20022;-38
2023/08/31 12:46:47;;;;;;;4.88;1.70;;;19.70;99.90;;;;;;4992255;28;20030;-35
2023/08/31 12:49:13;;;;;;;5.53;1.80;;;19.70;99.90;;;;;;4992021;28;20014;-35